sensor_id;sensor_type;location;lat;lon;timestamp;temperature;humidity
10312;DHT22;5201;48.776;9.128;2023-04-28T00:01:42;14.10;98.70
10312;DHT22;5201;48.776;9.128;2023-04-28T00:04:07;14.10;98.60
10312;DHT22;5201;48.776;9.128;2023-04-28T00:06:33;14.60;99.30
10312;DHT22;5201;48.776;9.128;2023-04-28T00:08:58;14.10;99.10
10312;DHT22;5201;48.776;9.128;2023-04-28T00:11:24;14.00;98.90
10312;DHT22;5201;48.776;9.128;2023-04-28T00:13:50;14.00;99.00
10312;DHT22;5201;48.776;9.128;2023-04-28T00:16:16;13.80;99.20
10312;DHT22;5201;48.776;9.128;2023-04-28T00:18:41;14.00;99.50
10312;DHT22;5201;48.776;9.128;2023-04-28T00:21:07;13.70;99.60
10312;DHT22;5201;48.776;9.128;2023-04-28T00:23:33;13.80;99.90
10312;DHT22;5201;48.776;9.128;2023-04-28T00:25:58;13.80;99.60
10312;DHT22;5201;48.776;9.128;2023-04-28T00:28:24;13.80;99.30
10312;DHT22;5201;48.776;9.128;2023-04-28T00:30:49;13.80;99.50
10312;DHT22;5201;48.776;9.128;2023-04-28T00:33:15;14.20;99.60
10312;DHT22;5201;48.776;9.128;2023-04-28T00:35:41;13.80;99.40
10312;DHT22;5201;48.776;9.128;2023-04-28T00:38:07;14.10;99.50
10312;DHT22;5201;48.776;9.128;2023-04-28T00:40:37;14.50;99.80
10312;DHT22;5201;48.776;9.128;2023-04-28T00:43:03;13.80;99.60
10312;DHT22;5201;48.776;9.128;2023-04-28T00:45:29;13.90;99.60
10312;DHT22;5201;48.776;9.128;2023-04-28T00:47:55;13.80;99.80
10312;DHT22;5201;48.776;9.128;2023-04-28T00:50:22;13.70;99.70
10312;DHT22;5201;48.776;9.128;2023-04-28T00:52:49;13.80;99.70
10312;DHT22;5201;48.776;9.128;2023-04-28T00:55:15;13.80;99.80
10312;DHT22;5201;48.776;9.128;2023-04-28T00:57:41;13.80;99.80
10312;DHT22;5201;48.776;9.128;2023-04-28T01:00:08;14.10;99.90
10312;DHT22;5201;48.776;9.128;2023-04-28T01:02:37;13.70;99.80
10312;DHT22;5201;48.776;9.128;2023-04-28T01:05:03;13.80;99.90
10312;DHT22;5201;48.776;9.128;2023-04-28T01:07:29;13.80;99.80
10312;DHT22;5201;48.776;9.128;2023-04-28T01:09:55;13.80;99.90
10312;DHT22;5201;48.776;9.128;2023-04-28T01:12:21;13.90;99.90
10312;DHT22;5201;48.776;9.128;2023-04-28T01:14:48;13.90;99.90
10312;DHT22;5201;48.776;9.128;2023-04-28T01:17:14;13.90;99.90
10312;DHT22;5201;48.776;9.128;2023-04-28T01:19:39;13.90;99.90
10312;DHT22;5201;48.776;9.128;2023-04-28T01:22:05;13.80;99.90
10312;DHT22;5201;48.776;9.128;2023-04-28T01:24:31;13.70;99.90
10312;DHT22;5201;48.776;9.128;2023-04-28T01:26:56;13.90;99.90
10312;DHT22;5201;48.776;9.128;2023-04-28T01:29:22;13.50;99.90
10312;DHT22;5201;48.776;9.128;2023-04-28T01:31:47;13.70;99.90
10312;DHT22;5201;48.776;9.128;2023-04-28T01:34:13;14.50;99.90
10312;DHT22;5201;48.776;9.128;2023-04-28T01:36:39;14.00;99.90
10312;DHT22;5201;48.776;9.128;2023-04-28T01:39:04;13.50;99.90
10312;DHT22;5201;48.776;9.128;2023-04-28T01:41:30;13.40;99.90
10312;DHT22;5201;48.776;9.128;2023-04-28T01:43:59;13.50;99.90
10312;DHT22;5201;48.776;9.128;2023-04-28T01:46:24;13.60;99.90
10312;DHT22;5201;48.776;9.128;2023-04-28T01:48:50;13.70;99.90
10312;DHT22;5201;48.776;9.128;2023-04-28T01:51:15;14.00;99.90
10312;DHT22;5201;48.776;9.128;2023-04-28T01:53:41;13.40;99.90
10312;DHT22;5201;48.776;9.128;2023-04-28T01:59:28;13.50;99.90
10312;DHT22;5201;48.776;9.128;2023-04-28T02:01:54;13.60;99.90
10312;DHT22;5201;48.776;9.128;2023-04-28T02:04:19;13.70;99.90
10312;DHT22;5201;48.776;9.128;2023-04-28T02:06:45;14.20;99.90
10312;DHT22;5201;48.776;9.128;2023-04-28T02:09:11;13.80;99.90
10312;DHT22;5201;48.776;9.128;2023-04-28T02:11:36;13.90;99.90
10312;DHT22;5201;48.776;9.128;2023-04-28T02:14:02;13.90;99.90
10312;DHT22;5201;48.776;9.128;2023-04-28T02:16:27;14.00;99.90
10312;DHT22;5201;48.776;9.128;2023-04-28T02:18:53;13.70;99.90
10312;DHT22;5201;48.776;9.128;2023-04-28T02:21:18;14.40;99.90
10312;DHT22;5201;48.776;9.128;2023-04-28T02:23:44;13.80;99.90
10312;DHT22;5201;48.776;9.128;2023-04-28T02:26:10;13.80;99.90
10312;DHT22;5201;48.776;9.128;2023-04-28T02:28:35;13.70;99.90
10312;DHT22;5201;48.776;9.128;2023-04-28T02:31:09;13.80;99.90
10312;DHT22;5201;48.776;9.128;2023-04-28T02:33:35;13.70;99.90
10312;DHT22;5201;48.776;9.128;2023-04-28T02:36:02;13.70;99.90
10312;DHT22;5201;48.776;9.128;2023-04-28T02:38:28;13.60;99.90
10312;DHT22;5201;48.776;9.128;2023-04-28T02:41:01;13.60;99.90
10312;DHT22;5201;48.776;9.128;2023-04-28T02:43:29;13.60;99.90
10312;DHT22;5201;48.776;9.128;2023-04-28T02:45:55;13.70;99.90
10312;DHT22;5201;48.776;9.128;2023-04-28T02:48:22;13.80;99.90
10312;DHT22;5201;48.776;9.128;2023-04-28T02:50:47;13.90;99.90
10312;DHT22;5201;48.776;9.128;2023-04-28T02:53:13;13.80;99.90
10312;DHT22;5201;48.776;9.128;2023-04-28T02:55:41;13.90;99.90
10312;DHT22;5201;48.776;9.128;2023-04-28T02:58:07;13.90;99.90
10312;DHT22;5201;48.776;9.128;2023-04-28T03:00:32;14.00;99.90
10312;DHT22;5201;48.776;9.128;2023-04-28T03:02:58;14.00;99.90
10312;DHT22;5201;48.776;9.128;2023-04-28T03:05:24;13.80;99.90
10312;DHT22;5201;48.776;9.128;2023-04-28T03:07:49;13.90;99.90
10312;DHT22;5201;48.776;9.128;2023-04-28T03:10:15;13.80;99.90
10312;DHT22;5201;48.776;9.128;2023-04-28T03:12:40;13.70;99.90
10312;DHT22;5201;48.776;9.128;2023-04-28T03:15:06;13.80;99.90
10312;DHT22;5201;48.776;9.128;2023-04-28T03:17:33;13.90;99.90
10312;DHT22;5201;48.776;9.128;2023-04-28T03:20:01;14.00;99.90
10312;DHT22;5201;48.776;9.128;2023-04-28T03:22:27;14.40;99.90
10312;DHT22;5201;48.776;9.128;2023-04-28T03:24:52;14.40;99.90
10312;DHT22;5201;48.776;9.128;2023-04-28T03:27:18;14.30;99.90
10312;DHT22;5201;48.776;9.128;2023-04-28T03:29:44;14.20;99.90
10312;DHT22;5201;48.776;9.128;2023-04-28T03:32:09;14.20;99.90
10312;DHT22;5201;48.776;9.128;2023-04-28T03:34:35;14.20;99.90
10312;DHT22;5201;48.776;9.128;2023-04-28T03:37:01;14.40;99.90
10312;DHT22;5201;48.776;9.128;2023-04-28T03:39:26;14.20;99.90
10312;DHT22;5201;48.776;9.128;2023-04-28T03:41:52;14.10;99.90
10312;DHT22;5201;48.776;9.128;2023-04-28T03:44:18;14.20;99.90
10312;DHT22;5201;48.776;9.128;2023-04-28T03:46:43;14.10;99.90
10312;DHT22;5201;48.776;9.128;2023-04-28T03:49:09;14.10;99.90
10312;DHT22;5201;48.776;9.128;2023-04-28T03:51:34;14.10;99.90
10312;DHT22;5201;48.776;9.128;2023-04-28T03:54:00;14.10;99.90
10312;DHT22;5201;48.776;9.128;2023-04-28T03:56:26;14.20;99.90
10312;DHT22;5201;48.776;9.128;2023-04-28T03:58:52;14.20;99.90
10312;DHT22;5201;48.776;9.128;2023-04-28T04:01:17;14.20;99.90
10312;DHT22;5201;48.776;9.128;2023-04-28T04:03:43;14.60;99.90
10312;DHT22;5201;48.776;9.128;2023-04-28T04:06:08;14.50;99.90
10312;DHT22;5201;48.776;9.128;2023-04-28T04:08:34;14.20;99.90
10312;DHT22;5201;48.776;9.128;2023-04-28T04:10:59;14.00;99.90
10312;DHT22;5201;48.776;9.128;2023-04-28T04:13:25;13.80;99.90
10312;DHT22;5201;48.776;9.128;2023-04-28T04:15:51;13.80;99.90
10312;DHT22;5201;48.776;9.128;2023-04-28T04:18:19;13.90;99.90
10312;DHT22;5201;48.776;9.128;2023-04-28T04:20:44;13.90;99.90
10312;DHT22;5201;48.776;9.128;2023-04-28T04:23:10;13.90;99.90
10312;DHT22;5201;48.776;9.128;2023-04-28T04:25:36;14.40;99.90
10312;DHT22;5201;48.776;9.128;2023-04-28T04:28:01;14.00;99.90
10312;DHT22;5201;48.776;9.128;2023-04-28T04:30:27;14.00;99.90
10312;DHT22;5201;48.776;9.128;2023-04-28T04:32:53;14.00;99.90
10312;DHT22;5201;48.776;9.128;2023-04-28T04:35:18;14.10;99.90
10312;DHT22;5201;48.776;9.128;2023-04-28T04:37:44;14.10;99.90
10312;DHT22;5201;48.776;9.128;2023-04-28T04:40:10;14.20;99.90
10312;DHT22;5201;48.776;9.128;2023-04-28T04:42:36;14.20;99.90
10312;DHT22;5201;48.776;9.128;2023-04-28T04:45:01;14.20;99.90
10312;DHT22;5201;48.776;9.128;2023-04-28T04:47:27;14.20;99.90
10312;DHT22;5201;48.776;9.128;2023-04-28T04:49:52;14.20;99.90
10312;DHT22;5201;48.776;9.128;2023-04-28T04:52:18;14.10;99.90
10312;DHT22;5201;48.776;9.128;2023-04-28T04:54:44;14.20;99.90
10312;DHT22;5201;48.776;9.128;2023-04-28T04:57:11;14.20;99.90
10312;DHT22;5201;48.776;9.128;2023-04-28T04:59:36;13.90;99.90
10312;DHT22;5201;48.776;9.128;2023-04-28T05:02:02;13.90;99.90
10312;DHT22;5201;48.776;9.128;2023-04-28T05:04:27;13.90;99.90
10312;DHT22;5201;48.776;9.128;2023-04-28T05:06:53;13.70;99.90
10312;DHT22;5201;48.776;9.128;2023-04-28T05:09:19;13.70;99.90
10312;DHT22;5201;48.776;9.128;2023-04-28T05:11:45;14.00;99.90
10312;DHT22;5201;48.776;9.128;2023-04-28T05:14:10;13.60;99.90
10312;DHT22;5201;48.776;9.128;2023-04-28T05:16:37;13.50;99.90
10312;DHT22;5201;48.776;9.128;2023-04-28T05:19:03;13.50;99.90
10312;DHT22;5201;48.776;9.128;2023-04-28T05:21:29;13.50;99.90
10312;DHT22;5201;48.776;9.128;2023-04-28T05:23:55;13.50;99.90
10312;DHT22;5201;48.776;9.128;2023-04-28T05:26:22;13.40;99.90
10312;DHT22;5201;48.776;9.128;2023-04-28T05:28:47;13.50;99.90
10312;DHT22;5201;48.776;9.128;2023-04-28T05:31:13;13.70;99.90
10312;DHT22;5201;48.776;9.128;2023-04-28T05:33:39;13.60;99.90
10312;DHT22;5201;48.776;9.128;2023-04-28T05:36:05;13.40;99.90
10312;DHT22;5201;48.776;9.128;2023-04-28T05:38:30;13.30;99.90
10312;DHT22;5201;48.776;9.128;2023-04-28T05:40:58;13.30;99.90
10312;DHT22;5201;48.776;9.128;2023-04-28T05:43:23;13.80;99.90
10312;DHT22;5201;48.776;9.128;2023-04-28T05:45:49;13.40;99.90
10312;DHT22;5201;48.776;9.128;2023-04-28T05:48:15;13.40;99.90
10312;DHT22;5201;48.776;9.128;2023-04-28T05:50:41;13.30;99.90
10312;DHT22;5201;48.776;9.128;2023-04-28T05:53:06;13.20;99.90
10312;DHT22;5201;48.776;9.128;2023-04-28T05:55:32;14.40;99.90
10312;DHT22;5201;48.776;9.128;2023-04-28T05:57:58;13.40;99.90
10312;DHT22;5201;48.776;9.128;2023-04-28T06:00:24;13.20;99.90
10312;DHT22;5201;48.776;9.128;2023-04-28T06:02:50;13.20;99.90
10312;DHT22;5201;48.776;9.128;2023-04-28T06:05:15;13.30;99.90
10312;DHT22;5201;48.776;9.128;2023-04-28T06:07:41;13.40;99.90
10312;DHT22;5201;48.776;9.128;2023-04-28T06:10:07;13.40;99.90
10312;DHT22;5201;48.776;9.128;2023-04-28T06:12:33;13.40;99.90
10312;DHT22;5201;48.776;9.128;2023-04-28T06:14:58;13.50;99.90
10312;DHT22;5201;48.776;9.128;2023-04-28T06:17:24;13.50;99.90
10312;DHT22;5201;48.776;9.128;2023-04-28T06:19:50;13.30;99.90
10312;DHT22;5201;48.776;9.128;2023-04-28T06:22:18;13.30;99.90
10312;DHT22;5201;48.776;9.128;2023-04-28T06:24:44;13.20;99.90
10312;DHT22;5201;48.776;9.128;2023-04-28T06:27:09;13.10;99.90
10312;DHT22;5201;48.776;9.128;2023-04-28T06:29:36;13.20;99.90
10312;DHT22;5201;48.776;9.128;2023-04-28T06:32:01;13.10;99.90
10312;DHT22;5201;48.776;9.128;2023-04-28T06:34:27;13.10;99.90
10312;DHT22;5201;48.776;9.128;2023-04-28T06:36:54;13.20;99.90
10312;DHT22;5201;48.776;9.128;2023-04-28T06:39:20;13.40;99.90
10312;DHT22;5201;48.776;9.128;2023-04-28T06:41:46;13.50;99.90
10312;DHT22;5201;48.776;9.128;2023-04-28T06:44:12;13.50;99.90
10312;DHT22;5201;48.776;9.128;2023-04-28T06:46:38;13.90;99.90
10312;DHT22;5201;48.776;9.128;2023-04-28T06:49:03;14.10;99.90
10312;DHT22;5201;48.776;9.128;2023-04-28T06:51:30;13.70;99.90
10312;DHT22;5201;48.776;9.128;2023-04-28T06:53:58;13.70;99.90
10312;DHT22;5201;48.776;9.128;2023-04-28T06:56:24;14.00;99.90
10312;DHT22;5201;48.776;9.128;2023-04-28T06:58:50;13.90;99.90
10312;DHT22;5201;48.776;9.128;2023-04-28T07:01:16;13.90;99.90
10312;DHT22;5201;48.776;9.128;2023-04-28T07:03:42;13.80;99.90
10312;DHT22;5201;48.776;9.128;2023-04-28T07:06:07;13.70;99.90
10312;DHT22;5201;48.776;9.128;2023-04-28T07:08:34;13.70;99.90
10312;DHT22;5201;48.776;9.128;2023-04-28T07:10:59;13.70;99.90
10312;DHT22;5201;48.776;9.128;2023-04-28T07:13:29;13.80;99.90
10312;DHT22;5201;48.776;9.128;2023-04-28T07:15:55;14.10;99.90
10312;DHT22;5201;48.776;9.128;2023-04-28T07:18:20;13.70;99.90
10312;DHT22;5201;48.776;9.128;2023-04-28T07:20:46;13.70;99.90
10312;DHT22;5201;48.776;9.128;2023-04-28T07:23:12;13.70;99.90
10312;DHT22;5201;48.776;9.128;2023-04-28T07:25:38;13.60;99.90
10312;DHT22;5201;48.776;9.128;2023-04-28T07:28:06;13.80;99.90
10312;DHT22;5201;48.776;9.128;2023-04-28T07:30:31;14.00;99.90
10312;DHT22;5201;48.776;9.128;2023-04-28T07:32:57;14.00;99.90
10312;DHT22;5201;48.776;9.128;2023-04-28T07:35:23;13.90;99.90
10312;DHT22;5201;48.776;9.128;2023-04-28T07:37:49;14.60;99.90
10312;DHT22;5201;48.776;9.128;2023-04-28T07:40:15;13.80;99.90
10312;DHT22;5201;48.776;9.128;2023-04-28T07:42:41;13.90;99.90
10312;DHT22;5201;48.776;9.128;2023-04-28T07:45:07;14.10;99.90
10312;DHT22;5201;48.776;9.128;2023-04-28T07:47:33;14.30;99.90
10312;DHT22;5201;48.776;9.128;2023-04-28T07:49:59;14.10;99.90
10312;DHT22;5201;48.776;9.128;2023-04-28T07:52:27;15.10;99.90
10312;DHT22;5201;48.776;9.128;2023-04-28T07:54:53;14.10;99.90
10312;DHT22;5201;48.776;9.128;2023-04-28T07:57:18;14.10;99.90
10312;DHT22;5201;48.776;9.128;2023-04-28T07:59:44;14.10;99.90
10312;DHT22;5201;48.776;9.128;2023-04-28T08:02:10;14.80;99.90
10312;DHT22;5201;48.776;9.128;2023-04-28T08:04:38;13.90;99.90
10312;DHT22;5201;48.776;9.128;2023-04-28T08:07:03;15.10;99.90
10312;DHT22;5201;48.776;9.128;2023-04-28T08:09:29;13.60;99.90
10312;DHT22;5201;48.776;9.128;2023-04-28T08:11:55;13.60;99.90
10312;DHT22;5201;48.776;9.128;2023-04-28T08:14:20;13.50;99.90
10312;DHT22;5201;48.776;9.128;2023-04-28T08:16:46;13.50;99.90
10312;DHT22;5201;48.776;9.128;2023-04-28T08:19:12;13.50;99.90
10312;DHT22;5201;48.776;9.128;2023-04-28T08:21:38;14.30;99.90
10312;DHT22;5201;48.776;9.128;2023-04-28T08:24:04;13.50;99.90
10312;DHT22;5201;48.776;9.128;2023-04-28T08:26:29;13.70;99.90
10312;DHT22;5201;48.776;9.128;2023-04-28T08:28:55;14.10;99.90
10312;DHT22;5201;48.776;9.128;2023-04-28T08:31:21;13.70;99.90
10312;DHT22;5201;48.776;9.128;2023-04-28T08:33:47;13.80;99.90
10312;DHT22;5201;48.776;9.128;2023-04-28T08:36:16;14.00;99.90
10312;DHT22;5201;48.776;9.128;2023-04-28T08:38:43;14.40;99.90
10312;DHT22;5201;48.776;9.128;2023-04-28T08:41:09;14.20;99.90
10312;DHT22;5201;48.776;9.128;2023-04-28T08:43:36;14.30;99.90
10312;DHT22;5201;48.776;9.128;2023-04-28T08:46:06;14.40;99.90
10312;DHT22;5201;48.776;9.128;2023-04-28T08:48:40;14.80;99.90
10312;DHT22;5201;48.776;9.128;2023-04-28T08:51:06;14.60;99.90
10312;DHT22;5201;48.776;9.128;2023-04-28T08:53:36;14.60;99.90
10312;DHT22;5201;48.776;9.128;2023-04-28T08:56:04;14.70;99.90
10312;DHT22;5201;48.776;9.128;2023-04-28T08:58:30;14.80;99.90
10312;DHT22;5201;48.776;9.128;2023-04-28T09:00:56;14.80;99.90
10312;DHT22;5201;48.776;9.128;2023-04-28T09:03:22;14.90;99.90
10312;DHT22;5201;48.776;9.128;2023-04-28T09:05:47;15.00;99.90
10312;DHT22;5201;48.776;9.128;2023-04-28T09:08:13;15.10;99.90
10312;DHT22;5201;48.776;9.128;2023-04-28T09:10:39;15.00;99.90
10312;DHT22;5201;48.776;9.128;2023-04-28T09:13:05;15.10;99.90
10312;DHT22;5201;48.776;9.128;2023-04-28T09:15:35;15.10;99.90
10312;DHT22;5201;48.776;9.128;2023-04-28T09:18:05;15.20;99.90
10312;DHT22;5201;48.776;9.128;2023-04-28T09:20:34;15.50;99.90
10312;DHT22;5201;48.776;9.128;2023-04-28T09:23:17;16.10;99.90
10312;DHT22;5201;48.776;9.128;2023-04-28T09:28:21;15.40;99.90
10312;DHT22;5201;48.776;9.128;2023-04-28T09:30:47;15.30;99.90
10312;DHT22;5201;48.776;9.128;2023-04-28T09:33:13;15.60;99.90
10312;DHT22;5201;48.776;9.128;2023-04-28T09:35:43;15.40;99.90
10312;DHT22;5201;48.776;9.128;2023-04-28T09:38:13;15.50;99.90
10312;DHT22;5201;48.776;9.128;2023-04-28T09:40:53;15.40;99.90
10312;DHT22;5201;48.776;9.128;2023-04-28T09:43:30;15.70;99.90
10312;DHT22;5201;48.776;9.128;2023-04-28T09:45:58;15.80;99.90
10312;DHT22;5201;48.776;9.128;2023-04-28T09:48:32;15.80;99.90
10312;DHT22;5201;48.776;9.128;2023-04-28T09:50:59;16.10;99.90
10312;DHT22;5201;48.776;9.128;2023-04-28T09:53:26;16.20;99.90
10312;DHT22;5201;48.776;9.128;2023-04-28T09:55:53;16.40;99.90
10312;DHT22;5201;48.776;9.128;2023-04-28T09:58:20;16.70;99.90
10312;DHT22;5201;48.776;9.128;2023-04-28T10:00:51;16.90;99.90
10312;DHT22;5201;48.776;9.128;2023-04-28T10:03:21;17.20;99.90
10312;DHT22;5201;48.776;9.128;2023-04-28T10:05:47;17.90;99.90
10312;DHT22;5201;48.776;9.128;2023-04-28T10:08:14;17.50;99.90
10312;DHT22;5201;48.776;9.128;2023-04-28T10:10:39;17.40;99.90
10312;DHT22;5201;48.776;9.128;2023-04-28T10:13:06;17.30;99.90
10312;DHT22;5201;48.776;9.128;2023-04-28T10:15:33;17.40;99.90
10312;DHT22;5201;48.776;9.128;2023-04-28T10:17:59;17.40;99.90
10312;DHT22;5201;48.776;9.128;2023-04-28T10:20:28;17.10;99.90
10312;DHT22;5201;48.776;9.128;2023-04-28T10:25:54;17.60;99.90
10312;DHT22;5201;48.776;9.128;2023-04-28T10:28:21;17.70;99.90
10312;DHT22;5201;48.776;9.128;2023-04-28T10:31:16;17.70;99.90
10312;DHT22;5201;48.776;9.128;2023-04-28T10:33:42;17.80;99.90
10312;DHT22;5201;48.776;9.128;2023-04-28T10:36:09;18.00;99.90
10312;DHT22;5201;48.776;9.128;2023-04-28T10:38:36;18.10;99.90
10312;DHT22;5201;48.776;9.128;2023-04-28T10:41:33;18.20;99.90
10312;DHT22;5201;48.776;9.128;2023-04-28T10:43:58;18.10;99.90
10312;DHT22;5201;48.776;9.128;2023-04-28T10:46:24;18.00;99.90
10312;DHT22;5201;48.776;9.128;2023-04-28T10:56:22;18.00;99.90
10312;DHT22;5201;48.776;9.128;2023-04-28T10:58:54;18.30;99.90
10312;DHT22;5201;48.776;9.128;2023-04-28T11:09:00;18.50;99.90
10312;DHT22;5201;48.776;9.128;2023-04-28T11:11:33;18.60;99.90
10312;DHT22;5201;48.776;9.128;2023-04-28T11:19:21;18.80;99.90
10312;DHT22;5201;48.776;9.128;2023-04-28T11:21:48;18.70;99.90
10312;DHT22;5201;48.776;9.128;2023-04-28T11:24:14;18.30;99.90
10312;DHT22;5201;48.776;9.128;2023-04-28T11:26:40;18.30;99.90
10312;DHT22;5201;48.776;9.128;2023-04-28T11:29:06;18.40;99.90
10312;DHT22;5201;48.776;9.128;2023-04-28T11:31:33;18.50;99.90
10312;DHT22;5201;48.776;9.128;2023-04-28T11:34:08;18.70;99.90
10312;DHT22;5201;48.776;9.128;2023-04-28T11:36:40;18.80;99.90
10312;DHT22;5201;48.776;9.128;2023-04-28T11:39:08;18.80;99.90
10312;DHT22;5201;48.776;9.128;2023-04-28T11:41:41;18.80;99.90
10312;DHT22;5201;48.776;9.128;2023-04-28T11:47:04;18.70;99.90
10312;DHT22;5201;48.776;9.128;2023-04-28T11:49:31;18.80;99.90
10312;DHT22;5201;48.776;9.128;2023-04-28T11:52:03;18.90;99.90
10312;DHT22;5201;48.776;9.128;2023-04-28T11:54:30;19.00;99.90
10312;DHT22;5201;48.776;9.128;2023-04-28T11:56:57;19.20;99.90
10312;DHT22;5201;48.776;9.128;2023-04-28T11:59:33;19.40;99.90
10312;DHT22;5201;48.776;9.128;2023-04-28T12:02:01;19.60;99.90
10312;DHT22;5201;48.776;9.128;2023-04-28T12:04:28;19.60;99.90
10312;DHT22;5201;48.776;9.128;2023-04-28T12:07:04;19.20;99.90
10312;DHT22;5201;48.776;9.128;2023-04-28T12:09:35;18.70;99.90
10312;DHT22;5201;48.776;9.128;2023-04-28T12:12:03;18.60;99.90
10312;DHT22;5201;48.776;9.128;2023-04-28T12:14:29;18.50;99.90
10312;DHT22;5201;48.776;9.128;2023-04-28T12:16:57;18.60;99.90
10312;DHT22;5201;48.776;9.128;2023-04-28T12:19:23;18.60;99.90
10312;DHT22;5201;48.776;9.128;2023-04-28T12:22:02;18.70;99.90
10312;DHT22;5201;48.776;9.128;2023-04-28T12:24:28;18.70;99.90
10312;DHT22;5201;48.776;9.128;2023-04-28T12:26:53;18.90;99.90
10312;DHT22;5201;48.776;9.128;2023-04-28T12:29:38;19.10;99.90
10312;DHT22;5201;48.776;9.128;2023-04-28T12:32:09;19.30;99.90
10312;DHT22;5201;48.776;9.128;2023-04-28T12:34:35;19.40;99.90
10312;DHT22;5201;48.776;9.128;2023-04-28T12:37:04;19.50;99.90
10312;DHT22;5201;48.776;9.128;2023-04-28T12:39:34;19.40;99.90
10312;DHT22;5201;48.776;9.128;2023-04-28T12:42:01;19.50;99.90
10312;DHT22;5201;48.776;9.128;2023-04-28T12:44:36;19.50;99.90
10312;DHT22;5201;48.776;9.128;2023-04-28T12:47:03;19.30;99.90
10312;DHT22;5201;48.776;9.128;2023-04-28T12:49:30;19.30;99.90
10312;DHT22;5201;48.776;9.128;2023-04-28T12:51:55;19.10;99.90
10312;DHT22;5201;48.776;9.128;2023-04-28T12:54:21;18.80;99.90
10312;DHT22;5201;48.776;9.128;2023-04-28T12:56:47;18.70;99.90
10312;DHT22;5201;48.776;9.128;2023-04-28T12:59:13;18.70;99.90
10312;DHT22;5201;48.776;9.128;2023-04-28T13:01:39;18.80;99.90
10312;DHT22;5201;48.776;9.128;2023-04-28T13:04:04;18.90;99.90
10312;DHT22;5201;48.776;9.128;2023-04-28T13:06:30;18.90;99.90
10312;DHT22;5201;48.776;9.128;2023-04-28T13:08:57;18.70;99.90
10312;DHT22;5201;48.776;9.128;2023-04-28T13:11:22;18.60;99.90
10312;DHT22;5201;48.776;9.128;2023-04-28T13:13:51;18.60;99.90
10312;DHT22;5201;48.776;9.128;2023-04-28T13:16:17;18.60;99.90
10312;DHT22;5201;48.776;9.128;2023-04-28T13:18:43;18.70;99.90
10312;DHT22;5201;48.776;9.128;2023-04-28T13:21:09;18.90;99.90
10312;DHT22;5201;48.776;9.128;2023-04-28T13:23:34;19.00;99.90
10312;DHT22;5201;48.776;9.128;2023-04-28T13:26:00;19.30;99.90
10312;DHT22;5201;48.776;9.128;2023-04-28T13:28:27;19.40;99.90
10312;DHT22;5201;48.776;9.128;2023-04-28T13:30:53;19.60;99.90
10312;DHT22;5201;48.776;9.128;2023-04-28T13:33:18;19.70;99.90
10312;DHT22;5201;48.776;9.128;2023-04-28T13:35:44;19.70;99.90
10312;DHT22;5201;48.776;9.128;2023-04-28T13:38:10;19.60;99.90
10312;DHT22;5201;48.776;9.128;2023-04-28T13:40:35;19.10;99.90
10312;DHT22;5201;48.776;9.128;2023-04-28T13:43:01;18.60;99.90
10312;DHT22;5201;48.776;9.128;2023-04-28T13:45:26;18.50;99.90
10312;DHT22;5201;48.776;9.128;2023-04-28T13:47:55;18.30;99.90
10312;DHT22;5201;48.776;9.128;2023-04-28T13:50:21;18.10;99.90
10312;DHT22;5201;48.776;9.128;2023-04-28T13:52:47;18.00;99.90
10312;DHT22;5201;48.776;9.128;2023-04-28T13:55:12;17.90;99.90
10312;DHT22;5201;48.776;9.128;2023-04-28T13:57:38;17.90;99.90
10312;DHT22;5201;48.776;9.128;2023-04-28T14:00:05;17.90;99.90
10312;DHT22;5201;48.776;9.128;2023-04-28T14:02:30;18.00;99.90
10312;DHT22;5201;48.776;9.128;2023-04-28T14:04:56;18.00;99.90
10312;DHT22;5201;48.776;9.128;2023-04-28T14:07:22;18.00;99.90
10312;DHT22;5201;48.776;9.128;2023-04-28T14:09:48;17.90;99.90
10312;DHT22;5201;48.776;9.128;2023-04-28T14:12:14;17.80;99.90
10312;DHT22;5201;48.776;9.128;2023-04-28T14:14:40;18.20;99.90
10312;DHT22;5201;48.776;9.128;2023-04-28T14:17:07;17.70;99.90
10312;DHT22;5201;48.776;9.128;2023-04-28T14:19:32;17.40;99.90
10312;DHT22;5201;48.776;9.128;2023-04-28T14:21:58;17.40;99.90
10312;DHT22;5201;48.776;9.128;2023-04-28T14:24:24;17.40;99.90
10312;DHT22;5201;48.776;9.128;2023-04-28T14:26:49;17.30;99.90
10312;DHT22;5201;48.776;9.128;2023-04-28T14:29:17;17.40;99.90
10312;DHT22;5201;48.776;9.128;2023-04-28T14:31:42;17.40;99.90
10312;DHT22;5201;48.776;9.128;2023-04-28T14:34:08;17.50;99.90
10312;DHT22;5201;48.776;9.128;2023-04-28T14:36:33;17.50;99.90
10312;DHT22;5201;48.776;9.128;2023-04-28T14:38:59;17.80;99.90
10312;DHT22;5201;48.776;9.128;2023-04-28T14:41:25;17.40;99.90
10312;DHT22;5201;48.776;9.128;2023-04-28T14:43:50;17.40;99.90
10312;DHT22;5201;48.776;9.128;2023-04-28T14:46:16;17.50;99.90
10312;DHT22;5201;48.776;9.128;2023-04-28T14:48:47;17.70;99.90
10312;DHT22;5201;48.776;9.128;2023-04-28T14:51:13;17.70;99.90
10312;DHT22;5201;48.776;9.128;2023-04-28T14:53:39;17.70;99.90
10312;DHT22;5201;48.776;9.128;2023-04-28T14:56:05;17.80;99.90
10312;DHT22;5201;48.776;9.128;2023-04-28T14:58:31;17.70;99.90
10312;DHT22;5201;48.776;9.128;2023-04-28T15:00:57;17.50;99.90
10312;DHT22;5201;48.776;9.128;2023-04-28T15:03:22;17.20;99.90
10312;DHT22;5201;48.776;9.128;2023-04-28T15:05:48;17.20;99.90
10312;DHT22;5201;48.776;9.128;2023-04-28T15:08:13;17.20;99.90
10312;DHT22;5201;48.776;9.128;2023-04-28T15:10:39;17.10;99.90
10312;DHT22;5201;48.776;9.128;2023-04-28T15:13:06;16.90;99.90
10312;DHT22;5201;48.776;9.128;2023-04-28T15:15:31;16.90;99.90
10312;DHT22;5201;48.776;9.128;2023-04-28T15:17:57;16.90;99.90
10312;DHT22;5201;48.776;9.128;2023-04-28T15:20:34;17.00;99.90
10312;DHT22;5201;48.776;9.128;2023-04-28T15:23:02;16.90;99.90
10312;DHT22;5201;48.776;9.128;2023-04-28T15:25:28;16.90;99.90
10312;DHT22;5201;48.776;9.128;2023-04-28T15:27:53;16.70;99.90
10312;DHT22;5201;48.776;9.128;2023-04-28T15:30:19;16.90;99.90
10312;DHT22;5201;48.776;9.128;2023-04-28T15:32:45;16.90;99.90
10312;DHT22;5201;48.776;9.128;2023-04-28T15:35:12;16.80;99.90
10312;DHT22;5201;48.776;9.128;2023-04-28T15:37:45;16.90;99.90
10312;DHT22;5201;48.776;9.128;2023-04-28T15:40:16;16.80;99.90
10312;DHT22;5201;48.776;9.128;2023-04-28T15:42:44;17.00;99.90
10312;DHT22;5201;48.776;9.128;2023-04-28T15:45:19;16.50;99.90
10312;DHT22;5201;48.776;9.128;2023-04-28T15:47:46;16.40;99.90
10312;DHT22;5201;48.776;9.128;2023-04-28T15:50:12;16.40;99.90
10312;DHT22;5201;48.776;9.128;2023-04-28T15:52:42;16.30;99.90
10312;DHT22;5201;48.776;9.128;2023-04-28T15:55:15;16.20;99.90
10312;DHT22;5201;48.776;9.128;2023-04-28T15:57:41;16.80;99.90
10312;DHT22;5201;48.776;9.128;2023-04-28T16:00:09;16.40;99.90
10312;DHT22;5201;48.776;9.128;2023-04-28T16:02:36;16.50;99.90
10312;DHT22;5201;48.776;9.128;2023-04-28T16:05:02;16.80;99.90
10312;DHT22;5201;48.776;9.128;2023-04-28T16:07:29;16.70;99.90
10312;DHT22;5201;48.776;9.128;2023-04-28T16:10:02;16.60;99.90
10312;DHT22;5201;48.776;9.128;2023-04-28T16:12:28;16.40;99.90
10312;DHT22;5201;48.776;9.128;2023-04-28T16:14:54;16.40;99.90